createdAt,value
2018-04-30T00:00:07.925Z,92.10
2018-04-30T00:02:36.440Z,92.00
2018-04-30T00:05:04.223Z,92.30
2018-04-30T00:07:32.005Z,92.00
2018-04-30T00:09:59.760Z,92.00
2018-04-30T00:12:27.580Z,92.10
2018-04-30T00:14:55.383Z,92.20
2018-04-30T00:17:23.059Z,92.20
2018-04-30T00:19:50.773Z,92.20
2018-04-30T00:22:18.482Z,92.30
2018-04-30T00:24:46.167Z,92.40
2018-04-30T00:27:14.635Z,92.40
2018-04-30T00:29:42.341Z,92.40
2018-04-30T00:32:10.041Z,92.60
2018-04-30T00:34:37.722Z,92.80
2018-04-30T00:37:06.349Z,93.10
2018-04-30T00:39:34.030Z,93.00
2018-04-30T00:42:02.485Z,93.30
2018-04-30T00:44:30.193Z,93.30
2018-04-30T00:46:58.041Z,93.40
2018-04-30T00:49:25.744Z,93.40
2018-04-30T00:51:54.237Z,93.40
2018-04-30T00:54:34.613Z,93.40
2018-04-30T00:57:02.322Z,93.30
2018-04-30T00:59:30.006Z,93.10
2018-04-30T01:01:58.469Z,93.00
2018-04-30T01:04:26.169Z,92.90
2018-04-30T01:06:53.885Z,92.90
2018-04-30T01:09:21.570Z,92.80
2018-04-30T01:11:50.215Z,92.80
2018-04-30T01:14:17.919Z,92.80
2018-04-30T01:16:46.357Z,92.90
2018-04-30T01:19:14.057Z,92.80
2018-04-30T01:21:42.626Z,93.00
2018-04-30T01:24:11.284Z,93.30
2018-04-30T01:26:38.993Z,93.20
2018-04-30T01:29:07.481Z,93.60
2018-04-30T01:31:35.394Z,93.60
2018-04-30T01:34:03.258Z,93.70
2018-04-30T01:36:30.959Z,93.80
2018-04-30T01:38:59.401Z,94.00
2018-04-30T01:41:27.105Z,93.90
2018-04-30T01:43:55.541Z,94.40
2018-04-30T01:46:23.229Z,94.40
2018-04-30T01:48:51.071Z,94.60
2018-04-30T01:51:18.770Z,94.80
2018-04-30T01:53:47.242Z,95.00
2018-04-30T01:56:14.945Z,95.00
2018-04-30T01:58:42.657Z,95.20
2018-04-30T02:01:10.497Z,95.30
2018-04-30T02:03:38.362Z,95.30
2018-04-30T02:06:06.069Z,95.20
2018-04-30T02:08:34.526Z,95.00
2018-04-30T02:11:02.253Z,95.00
2018-04-30T02:13:30.030Z,94.90
2018-04-30T02:15:57.769Z,94.80
2018-04-30T02:18:25.473Z,94.70
2018-04-30T02:20:53.157Z,94.50
2018-04-30T02:23:21.626Z,94.50
2018-04-30T02:25:49.325Z,94.40
2018-04-30T02:28:17.034Z,94.40
2018-04-30T02:30:44.723Z,94.40
2018-04-30T02:33:13.437Z,94.40
2018-04-30T02:35:42.051Z,94.40
2018-04-30T02:38:09.733Z,94.30
2018-04-30T02:40:37.445Z,94.30
2018-04-30T02:43:05.237Z,94.30
2018-04-30T02:45:33.102Z,94.50
2018-04-30T02:48:00.967Z,94.50
2018-04-30T02:50:28.649Z,94.20
2018-04-30T02:52:56.433Z,94.60
2018-04-30T02:55:24.911Z,94.70
2018-04-30T02:57:53.421Z,94.80
2018-04-30T03:00:21.113Z,94.80
2018-04-30T03:02:48.917Z,94.80
2018-04-30T03:05:17.377Z,95.20
2018-04-30T03:07:45.069Z,95.20
2018-04-30T03:10:13.704Z,95.40
2018-04-30T03:12:41.405Z,95.40
2018-04-30T03:15:09.852Z,95.30
2018-04-30T03:17:37.598Z,95.30
2018-04-30T03:20:05.274Z,95.30
2018-04-30T03:22:32.957Z,95.30
2018-04-30T03:25:00.732Z,95.20
2018-04-30T03:27:29.205Z,95.10
2018-04-30T03:29:57.653Z,95.20
2018-04-30T03:32:25.357Z,95.00
2018-04-30T03:34:53.803Z,94.90
2018-04-30T03:37:21.497Z,94.90
2018-04-30T03:39:49.978Z,94.70
2018-04-30T03:42:18.449Z,94.60
2018-04-30T03:44:46.941Z,94.40
2018-04-30T03:47:15.413Z,94.30
2018-04-30T03:49:44.101Z,94.20
2018-04-30T03:52:11.821Z,94.10
2018-04-30T03:54:39.687Z,94.10
2018-04-30T03:57:07.553Z,94.00
2018-04-30T03:59:35.237Z,93.90
2018-04-30T04:02:15.162Z,93.80
2018-04-30T04:04:54.804Z,93.70
2018-04-30T04:07:22.533Z,93.70
2018-04-30T04:09:50.218Z,93.60
2018-04-30T04:12:17.910Z,93.50
2018-04-30T04:14:45.650Z,93.50
2018-04-30T04:17:13.326Z,93.50
2018-04-30T04:19:41.035Z,93.50
2018-04-30T04:22:08.773Z,93.50
2018-04-30T04:24:37.234Z,93.50
2018-04-30T04:27:04.967Z,93.40
2018-04-30T04:29:32.681Z,93.30
2018-04-30T04:32:01.170Z,93.20
2018-04-30T04:34:29.620Z,93.10
2018-04-30T04:36:57.341Z,93.10
2018-04-30T04:39:25.048Z,93.10
2018-04-30T04:41:52.731Z,93.10
2018-04-30T04:44:21.233Z,92.70
2018-04-30T04:46:48.919Z,92.70
2018-04-30T04:49:16.634Z,92.50
2018-04-30T04:51:45.165Z,92.50
2018-04-30T04:54:12.935Z,92.50
2018-04-30T04:56:40.655Z,92.30
2018-04-30T04:59:08.386Z,92.40
2018-04-30T05:01:36.195Z,92.20
2018-04-30T05:04:03.884Z,92.20
2018-04-30T05:06:31.675Z,92.00
2018-04-30T05:08:59.357Z,91.80
2018-04-30T05:11:27.045Z,92.00
2018-04-30T05:13:54.801Z,91.70
2018-04-30T05:16:22.488Z,91.70
2018-04-30T05:18:50.179Z,91.40
2018-04-30T05:21:17.914Z,91.30
2018-04-30T05:23:45.625Z,91.10
2018-04-30T05:26:14.164Z,90.60
2018-04-30T05:28:41.873Z,90.60
2018-04-30T05:31:10.317Z,90.30
2018-04-30T05:33:38.003Z,90.20
2018-04-30T05:36:05.787Z,90.10
2018-04-30T05:38:33.470Z,89.80
2018-04-30T05:41:01.189Z,90.30
2018-04-30T05:43:29.674Z,88.70
2018-04-30T05:45:58.215Z,88.80
2018-04-30T05:48:25.915Z,88.70
2018-04-30T05:50:54.397Z,87.50
2018-04-30T05:53:23.143Z,87.40
2018-04-30T05:55:50.844Z,86.80
2018-04-30T05:58:19.325Z,86.80
2018-04-30T06:00:47.794Z,85.10
2018-04-30T06:03:15.498Z,85.00
2018-04-30T06:05:43.204Z,85.80
2018-04-30T06:08:10.901Z,85.20
2018-04-30T06:10:39.349Z,83.90
2018-04-30T06:13:07.061Z,83.80
2018-04-30T06:15:34.855Z,83.60
2018-04-30T06:18:02.541Z,82.40
2018-04-30T06:20:31.200Z,81.20
2018-04-30T06:22:58.972Z,81.20
2018-04-30T06:25:26.829Z,80.90
2018-04-30T06:27:54.694Z,80.70
2018-04-30T06:30:22.463Z,78.20
2018-04-30T06:32:50.180Z,77.00
2018-04-30T06:35:17.985Z,76.90
2018-04-30T06:37:45.747Z,76.70
2018-04-30T06:40:13.456Z,76.70
2018-04-30T06:42:42.033Z,75.70
2018-04-30T06:45:10.517Z,75.70
2018-04-30T06:47:39.034Z,75.20
2018-04-30T06:50:06.847Z,75.10
2018-04-30T06:52:34.522Z,74.90
2018-04-30T06:55:02.965Z,74.20
2018-04-30T06:57:30.706Z,74.10
2018-04-30T06:59:58.381Z,73.90
2018-04-30T07:02:26.084Z,72.30
2018-04-30T07:04:54.557Z,72.00
2018-04-30T07:07:23.025Z,72.60
2018-04-30T07:09:50.710Z,71.70
2018-04-30T07:12:19.180Z,70.10
2018-04-30T07:14:47.650Z,68.60
2018-04-30T07:17:15.329Z,68.60
2018-04-30T07:19:43.859Z,68.00
2018-04-30T07:22:11.540Z,67.90
2018-04-30T07:24:39.231Z,67.90
2018-04-30T07:27:07.753Z,66.60
2018-04-30T07:29:35.425Z,66.50
2018-04-30T07:32:03.139Z,65.70
2018-04-30T07:34:31.613Z,64.50
2018-04-30T07:37:00.077Z,64.80
2018-04-30T07:39:27.759Z,64.70
2018-04-30T07:41:56.229Z,65.10
2018-04-30T07:44:24.720Z,63.40
2018-04-30T07:46:53.161Z,63.20
2018-04-30T07:49:20.861Z,63.20
2018-04-30T07:51:48.621Z,63.00
2018-04-30T07:54:17.094Z,61.40
2018-04-30T07:56:45.573Z,61.30
2018-04-30T07:59:14.026Z,62.10
2018-04-30T08:01:41.730Z,62.00
2018-04-30T08:04:10.210Z,59.50
2018-04-30T08:06:37.921Z,59.40
2018-04-30T08:09:05.698Z,58.80
2018-04-30T08:11:33.522Z,57.90
2018-04-30T08:14:01.218Z,57.50
2018-04-30T08:16:28.937Z,55.40
2018-04-30T08:18:56.673Z,54.60
2018-04-30T08:21:25.114Z,52.80
2018-04-30T08:23:52.813Z,52.70
2018-04-30T08:26:21.293Z,51.40
2018-04-30T08:28:49.765Z,49.90
2018-04-30T08:31:17.450Z,49.80
2018-04-30T08:33:45.165Z,50.00
2018-04-30T08:36:12.901Z,47.90
2018-04-30T08:38:40.574Z,45.90
2018-04-30T08:41:08.506Z,46.50
2018-04-30T08:43:36.193Z,45.40
2018-04-30T08:46:04.885Z,44.80
2018-04-30T08:48:32.605Z,44.20
2018-04-30T08:51:01.047Z,45.80
2018-04-30T08:53:29.506Z,45.70
2018-04-30T08:55:58.326Z,46.10
2018-04-30T08:58:26.029Z,46.40
2018-04-30T09:00:53.713Z,46.10
2018-04-30T09:03:21.438Z,46.00
2018-04-30T09:05:49.885Z,45.30
2018-04-30T09:08:17.570Z,45.90
2018-04-30T09:10:46.049Z,42.90
2018-04-30T09:13:14.495Z,41.80
2018-04-30T09:15:42.202Z,41.80
2018-04-30T09:18:10.673Z,40.70
2018-04-30T09:20:39.145Z,41.50
2018-04-30T09:23:06.817Z,41.50
2018-04-30T09:25:35.285Z,41.60
2018-04-30T09:28:03.798Z,42.10
2018-04-30T09:30:31.485Z,42.10
2018-04-30T09:32:59.193Z,41.30
2018-04-30T09:35:27.639Z,40.60
2018-04-30T09:37:55.381Z,40.60
2018-04-30T09:40:23.103Z,40.20
2018-04-30T09:42:51.550Z,39.30
2018-04-30T09:45:19.249Z,39.30
2018-04-30T09:47:47.751Z,38.50
2018-04-30T09:50:15.461Z,38.50
2018-04-30T09:52:43.141Z,36.80
2018-04-30T09:55:11.621Z,36.80
2018-04-30T09:57:40.161Z,36.90
2018-04-30T10:00:07.834Z,36.90
2018-04-30T10:02:35.693Z,37.50
2018-04-30T10:05:03.376Z,37.90
2018-04-30T10:07:31.066Z,38.90
2018-04-30T10:09:58.797Z,39.80
2018-04-30T10:12:26.527Z,40.00
2018-04-30T10:14:54.207Z,39.80
2018-04-30T10:17:21.933Z,41.00
2018-04-30T10:19:49.614Z,41.30
2018-04-30T10:22:17.329Z,41.60
2018-04-30T10:24:45.809Z,41.60
2018-04-30T10:27:14.351Z,41.70
2018-04-30T10:29:42.058Z,41.60
2018-04-30T10:32:10.529Z,41.30
2018-04-30T10:34:39.009Z,41.90
2018-04-30T10:37:07.451Z,41.40
2018-04-30T10:39:35.193Z,41.30
2018-04-30T10:42:02.891Z,42.80
2018-04-30T10:44:30.610Z,42.70
2018-04-30T10:46:58.368Z,43.10
2018-04-30T10:49:26.051Z,42.40
2018-04-30T10:51:53.760Z,42.30
2018-04-30T10:54:22.268Z,41.90
2018-04-30T10:56:49.987Z,41.80
2018-04-30T10:59:17.666Z,40.80
2018-04-30T11:01:46.146Z,40.90
2018-04-30T11:04:14.589Z,40.90
2018-04-30T11:06:42.307Z,40.90
2018-04-30T11:09:10.012Z,40.20
2018-04-30T11:11:37.689Z,40.50
2018-04-30T11:14:05.397Z,40.30
2018-04-30T11:16:33.106Z,40.40
2018-04-30T11:19:00.808Z,40.60
2018-04-30T11:21:29.267Z,39.90
2018-04-30T11:23:56.989Z,39.90
2018-04-30T11:26:24.702Z,39.70
2018-04-30T11:28:53.141Z,39.90
2018-04-30T11:31:20.846Z,39.80
2018-04-30T11:33:49.322Z,39.00
2018-04-30T11:36:17.772Z,38.80
2018-04-30T11:38:45.486Z,38.80
2018-04-30T11:41:13.197Z,38.30
2018-04-30T11:43:40.890Z,38.00
2018-04-30T11:46:08.648Z,36.60
2018-04-30T11:48:36.366Z,36.10
2018-04-30T11:51:04.045Z,35.10
2018-04-30T11:53:31.773Z,33.60
2018-04-30T11:55:59.517Z,32.60
2018-04-30T11:58:27.242Z,32.30
2018-04-30T12:00:55.737Z,31.20
2018-04-30T12:03:24.217Z,30.40
2018-04-30T12:05:52.681Z,31.90
2018-04-30T12:08:21.169Z,33.50
2018-04-30T12:10:49.662Z,36.00
2018-04-30T12:13:18.117Z,36.60
2018-04-30T12:15:45.858Z,36.50
2018-04-30T12:18:13.581Z,38.10
2018-04-30T12:20:41.322Z,36.40
2018-04-30T12:23:09.813Z,31.30
2018-04-30T12:25:38.283Z,31.30
2018-04-30T12:28:06.798Z,29.50
2018-04-30T12:30:34.565Z,29.40
2018-04-30T12:33:02.291Z,29.00
2018-04-30T12:35:30.046Z,29.60
2018-04-30T12:37:57.790Z,29.40
2018-04-30T12:40:25.519Z,30.10
2018-04-30T12:42:53.242Z,31.30
2018-04-30T12:45:20.981Z,32.50
2018-04-30T12:48:01.354Z,34.90
2018-04-30T12:50:32.575Z,36.50
2018-04-30T12:53:14.694Z,38.20
2018-04-30T12:55:42.702Z,41.00
2018-04-30T12:58:10.407Z,42.90
2018-04-30T13:00:38.121Z,44.00
2018-04-30T13:08:46.079Z,37.70
2018-04-30T13:11:13.823Z,37.60
2018-04-30T13:13:48.201Z,38.30
2018-04-30T13:16:19.256Z,43.10
2018-04-30T13:18:47.818Z,48.10
2018-04-30T13:21:15.506Z,47.60
2018-04-30T13:23:43.989Z,53.00
2018-04-30T13:26:12.442Z,54.10
2018-04-30T13:28:41.682Z,54.50
2018-04-30T13:31:09.385Z,54.50
2018-04-30T13:33:37.078Z,55.40
2018-04-30T13:36:05.553Z,58.20
2018-04-30T13:38:33.261Z,57.90
2018-04-30T13:41:00.956Z,58.50
2018-04-30T13:43:28.629Z,58.50
2018-04-30T13:45:56.449Z,59.10
2018-04-30T13:48:24.129Z,59.20
2018-04-30T13:50:51.814Z,59.30
2018-04-30T13:53:19.513Z,60.50
2018-04-30T13:55:47.215Z,60.90
2018-04-30T13:58:14.926Z,63.10
2018-04-30T14:00:43.393Z,66.70
2018-04-30T14:03:11.097Z,66.50
2018-04-30T14:05:38.775Z,68.20
2018-04-30T14:08:06.482Z,68.30
2018-04-30T14:10:34.961Z,72.60
2018-04-30T14:13:03.455Z,73.40
2018-04-30T14:15:31.955Z,72.70
2018-04-30T14:17:59.629Z,72.80
2018-04-30T14:20:27.415Z,74.30
2018-04-30T14:22:55.118Z,75.40
2018-04-30T14:25:23.559Z,79.20
2018-04-30T14:27:51.287Z,79.10
2018-04-30T14:30:19.013Z,78.60
2018-04-30T14:32:47.481Z,82.10
2018-04-30T14:35:15.406Z,82.00
2018-04-30T14:37:43.121Z,82.90
2018-04-30T14:40:11.581Z,80.70
2018-04-30T14:42:39.262Z,80.70
2018-04-30T14:45:07.746Z,83.60
2018-04-30T14:47:36.212Z,84.10
2018-04-30T14:50:03.965Z,84.80
2018-04-30T14:52:31.673Z,83.00
2018-04-30T14:54:59.357Z,83.10
2018-04-30T14:57:27.065Z,84.90
2018-04-30T14:59:54.820Z,85.10
2018-04-30T15:02:22.528Z,83.50
2018-04-30T15:04:50.205Z,84.90
2018-04-30T15:07:17.917Z,86.60
2018-04-30T15:09:46.389Z,88.20
2018-04-30T15:12:14.146Z,88.10
2018-04-30T15:14:41.853Z,89.00
2018-04-30T15:17:09.536Z,88.30
2018-04-30T15:19:37.288Z,88.50
2018-04-30T15:22:05.737Z,89.30
2018-04-30T15:24:34.185Z,88.50
2018-04-30T15:27:01.896Z,88.40
2018-04-30T15:29:29.614Z,88.90
2018-04-30T15:31:57.326Z,88.70
2018-04-30T15:34:25.032Z,89.20
2018-04-30T15:36:52.741Z,89.70
2018-04-30T15:39:20.509Z,88.00
2018-04-30T15:41:48.185Z,89.10
2018-04-30T15:44:15.893Z,89.20
2018-04-30T15:46:43.575Z,89.10
2018-04-30T15:49:12.049Z,89.20
2018-04-30T15:51:40.521Z,89.10
2018-04-30T15:54:08.974Z,90.40
2018-04-30T15:56:36.673Z,90.00
2018-04-30T15:59:05.145Z,88.80
2018-04-30T16:01:33.625Z,88.80
2018-04-30T16:04:02.091Z,89.10
2018-04-30T16:06:29.867Z,89.10
2018-04-30T16:08:57.542Z,89.30
2018-04-30T16:11:26.015Z,88.60
2018-04-30T16:13:54.551Z,89.10
2018-04-30T16:16:22.225Z,89.10
2018-04-30T16:18:49.945Z,89.20
2018-04-30T16:21:17.685Z,90.00
2018-04-30T16:23:46.170Z,90.00
2018-04-30T16:26:13.885Z,90.00
2018-04-30T16:28:41.601Z,89.80
2018-04-30T16:31:09.317Z,89.40
2018-04-30T16:33:37.055Z,89.60
2018-04-30T16:36:04.934Z,89.30
2018-04-30T16:38:33.484Z,89.90
2018-04-30T16:41:01.392Z,89.60
2018-04-30T16:43:29.149Z,89.30
2018-04-30T16:45:56.861Z,88.90
2018-04-30T16:48:24.579Z,88.90
2018-04-30T16:50:52.293Z,89.00
2018-04-30T16:53:20.019Z,89.10
2018-04-30T16:55:47.793Z,88.80
2018-04-30T16:58:16.292Z,89.00
2018-04-30T17:00:44.788Z,88.80
2018-04-30T17:03:12.493Z,88.80
2018-04-30T17:05:40.218Z,88.10
2018-04-30T17:08:07.950Z,88.30
2018-04-30T17:10:40.572Z,87.30
2018-04-30T17:13:08.939Z,86.80
2018-04-30T17:15:36.641Z,87.30
2018-04-30T17:18:04.341Z,86.90
2018-04-30T17:20:32.043Z,87.90
2018-04-30T17:22:59.807Z,87.00
2018-04-30T17:25:27.633Z,87.40
2018-04-30T17:27:55.439Z,87.30
2018-04-30T17:30:23.186Z,87.50
2018-04-30T17:33:04.924Z,88.10
2018-04-30T17:35:33.517Z,88.30
2018-04-30T17:38:02.055Z,88.20
2018-04-30T17:40:29.921Z,88.20
2018-04-30T17:42:57.863Z,87.70
2018-04-30T17:45:26.367Z,88.90
2018-04-30T17:47:54.233Z,88.90
2018-04-30T17:50:21.904Z,89.30
2018-04-30T17:52:49.598Z,89.70
2018-04-30T17:55:18.070Z,90.50
2018-04-30T17:57:46.537Z,90.80
2018-04-30T18:00:14.241Z,90.70
2018-04-30T18:02:42.041Z,90.90
2018-04-30T18:05:09.907Z,90.90
2018-04-30T18:07:37.582Z,90.80
2018-04-30T18:10:05.305Z,90.90
2018-04-30T18:12:33.096Z,91.00
2018-04-30T18:15:00.863Z,91.20
2018-04-30T18:17:28.724Z,91.30
2018-04-30T18:19:56.488Z,91.50
2018-04-30T18:22:24.351Z,91.40
2018-04-30T18:24:52.215Z,91.30
2018-04-30T18:27:19.897Z,91.50
2018-04-30T18:29:47.742Z,91.40
2018-04-30T18:32:15.608Z,91.40
2018-04-30T18:34:43.300Z,91.40
2018-04-30T18:37:11.953Z,91.40
2018-04-30T18:39:39.819Z,91.40
2018-04-30T18:42:07.684Z,91.40
2018-04-30T18:44:35.447Z,91.20
2018-04-30T18:47:03.313Z,91.50
2018-04-30T18:49:31.178Z,91.10
2018-04-30T18:51:58.941Z,91.20
2018-04-30T18:54:27.416Z,90.00
2018-04-30T18:56:55.185Z,90.00
2018-04-30T18:59:22.881Z,89.50
2018-04-30T19:01:51.838Z,89.00
2018-04-30T19:04:19.604Z,88.50
2018-04-30T19:06:47.470Z,88.40
2018-04-30T19:09:15.173Z,87.70
2018-04-30T19:11:43.813Z,87.30
2018-04-30T19:14:11.574Z,87.30
2018-04-30T19:16:39.547Z,88.30
2018-04-30T19:19:09.466Z,88.10
2018-04-30T19:21:37.199Z,87.70
2018-04-30T19:24:04.925Z,88.80
2018-04-30T19:26:33.401Z,89.10
2018-04-30T19:29:01.174Z,89.10
2018-04-30T19:31:29.809Z,90.40
2018-04-30T19:33:57.484Z,90.40
2018-04-30T19:36:25.185Z,91.00
2018-04-30T19:38:53.661Z,91.70
2018-04-30T19:41:22.136Z,91.80
2018-04-30T19:43:50.684Z,92.30
2018-04-30T19:46:18.471Z,92.20
2018-04-30T19:48:46.169Z,92.30
2018-04-30T19:51:14.532Z,92.70
2018-04-30T19:53:42.447Z,92.90
2018-04-30T19:56:10.309Z,93.00
2018-04-30T19:58:38.177Z,92.90
2018-04-30T20:01:06.292Z,92.70
2018-04-30T20:03:34.600Z,92.90
2018-04-30T20:06:02.331Z,92.80
2018-04-30T20:08:30.815Z,92.70
2018-04-30T20:10:59.287Z,92.40
2018-04-30T20:13:27.743Z,92.10
2018-04-30T20:15:55.467Z,92.00
2018-04-30T20:18:23.251Z,92.50
2018-04-30T20:20:51.122Z,92.40
2018-04-30T20:23:18.984Z,92.40
2018-04-30T20:25:46.848Z,92.30
2018-04-30T20:28:14.724Z,92.20
2018-04-30T20:30:42.581Z,92.20
2018-04-30T20:33:10.445Z,92.20
2018-04-30T20:35:38.313Z,92.40
2018-04-30T20:38:06.305Z,92.70
2018-04-30T20:40:34.176Z,92.90
2018-04-30T20:43:02.016Z,93.10
2018-04-30T20:45:29.876Z,93.40
2018-04-30T20:47:57.748Z,93.20
2018-04-30T20:50:25.689Z,93.20
2018-04-30T20:52:54.293Z,93.00
2018-04-30T20:55:22.057Z,93.00
2018-04-30T20:57:49.919Z,93.00
2018-04-30T21:00:17.656Z,92.90
2018-04-30T21:02:45.960Z,92.90
2018-04-30T21:05:13.824Z,92.80
2018-04-30T21:07:41.795Z,93.00
2018-04-30T21:10:11.394Z,93.20
2018-04-30T21:12:39.733Z,93.20
2018-04-30T21:15:08.871Z,93.30
2018-04-30T21:17:36.740Z,93.20
2018-04-30T21:20:04.602Z,93.50
2018-04-30T21:22:32.472Z,93.50
2018-04-30T21:25:00.332Z,93.50
2018-04-30T21:27:28.200Z,93.50
2018-04-30T21:29:55.937Z,93.50
2018-04-30T21:32:23.688Z,93.40
2018-04-30T21:34:51.390Z,93.80
2018-04-30T21:37:19.254Z,93.40
2018-04-30T21:39:47.218Z,93.20
2018-04-30T21:42:14.982Z,93.20
2018-04-30T21:44:42.720Z,93.10
2018-04-30T21:47:10.508Z,93.20
2018-04-30T21:49:38.225Z,93.20
2018-04-30T21:52:06.704Z,93.10
2018-04-30T21:54:34.392Z,93.00
2018-04-30T21:57:02.115Z,93.30
2018-04-30T21:59:30.611Z,93.20
2018-04-30T22:01:58.317Z,93.20
2018-04-30T22:04:26.006Z,93.00
2018-04-30T22:06:53.847Z,93.30
2018-04-30T22:09:21.554Z,93.20
2018-04-30T22:11:51.929Z,93.40
2018-04-30T22:14:19.702Z,93.00
2018-04-30T22:16:47.406Z,93.50
2018-04-30T22:19:15.861Z,93.40
2018-04-30T22:21:43.605Z,93.30
2018-04-30T22:24:12.179Z,93.20
2018-04-30T22:26:39.942Z,93.20
2018-04-30T22:29:07.807Z,93.30
2018-04-30T22:31:35.570Z,93.40
2018-04-30T22:34:03.273Z,93.70
2018-04-30T22:36:31.972Z,93.80
2018-04-30T22:38:59.782Z,93.70
2018-04-30T22:41:27.648Z,93.70
2018-04-30T22:43:55.515Z,93.80
2018-04-30T22:46:23.276Z,93.90
2018-04-30T22:48:51.148Z,93.70
2018-04-30T22:51:19.009Z,93.90
2018-04-30T22:53:46.873Z,93.90
2018-04-30T22:56:14.744Z,93.80
2018-04-30T22:58:42.559Z,93.80
2018-04-30T23:01:10.367Z,93.80
2018-04-30T23:03:38.134Z,93.80
2018-04-30T23:06:06.166Z,93.90
2018-04-30T23:08:33.971Z,93.90
2018-04-30T23:11:01.889Z,94.00
2018-04-30T23:13:30.514Z,94.20
2018-04-30T23:15:58.190Z,94.20
2018-04-30T23:18:25.901Z,94.20
2018-04-30T23:20:53.617Z,94.10
2018-04-30T23:23:21.325Z,94.20
2018-04-30T23:25:49.001Z,94.20
2018-04-30T23:28:16.705Z,94.40
2018-04-30T23:30:44.550Z,94.30
2018-04-30T23:33:12.313Z,94.40
2018-04-30T23:35:40.178Z,94.40
2018-04-30T23:38:07.942Z,94.60
2018-04-30T23:40:35.806Z,94.70
2018-04-30T23:43:03.673Z,95.00
2018-04-30T23:45:31.437Z,94.60
2018-04-30T23:47:59.304Z,94.60
2018-04-30T23:50:27.167Z,94.70
2018-04-30T23:52:54.870Z,94.60
2018-04-30T23:55:23.411Z,94.80
2018-04-30T23:57:51.276Z,94.70
